sensor_id;sensor_type;location;lat;lon;timestamp;noise_LAeq;noise_LA_min;noise_LA_max;noise_LA01;noise_LA95
74496;Laerm;62979;55.720;37.606;2023-03-01T00:01:40;57.60;39.86;79.85;;
74496;Laerm;62979;55.720;37.606;2023-03-01T00:04:07;47.41;40.28;71.97;;
74496;Laerm;62979;55.720;37.606;2023-03-01T00:06:35;47.95;39.00;69.39;;
74496;Laerm;62979;55.720;37.606;2023-03-01T00:09:03;47.90;39.27;67.22;;
74496;Laerm;62979;55.720;37.606;2023-03-01T00:11:32;49.42;41.36;71.31;;
74496;Laerm;62979;55.720;37.606;2023-03-01T00:14:02;48.56;40.57;69.01;;
74496;Laerm;62979;55.720;37.606;2023-03-01T00:16:33;46.25;40.17;60.80;;
74496;Laerm;62979;55.720;37.606;2023-03-01T00:19:02;52.24;39.73;81.46;;
74496;Laerm;62979;55.720;37.606;2023-03-01T00:21:29;50.40;39.83;76.34;;
74496;Laerm;62979;55.720;37.606;2023-03-01T00:23:57;52.56;38.92;77.78;;
74496;Laerm;62979;55.720;37.606;2023-03-01T00:26:26;48.15;40.18;73.28;;
74496;Laerm;62979;55.720;37.606;2023-03-01T00:28:53;50.95;40.56;71.01;;
74496;Laerm;62979;55.720;37.606;2023-03-01T00:31:24;52.97;39.32;75.65;;
74496;Laerm;62979;55.720;37.606;2023-03-01T00:33:53;55.06;39.38;81.27;;
74496;Laerm;62979;55.720;37.606;2023-03-01T00:36:24;46.67;39.49;68.70;;
74496;Laerm;62979;55.720;37.606;2023-03-01T00:38:51;48.09;40.80;71.47;;
74496;Laerm;62979;55.720;37.606;2023-03-01T00:41:21;45.83;39.27;66.49;;
74496;Laerm;62979;55.720;37.606;2023-03-01T00:43:49;52.25;39.34;73.96;;
74496;Laerm;62979;55.720;37.606;2023-03-01T00:46:23;49.17;40.77;71.04;;
74496;Laerm;62979;55.720;37.606;2023-03-01T00:48:50;53.91;40.58;74.94;;
74496;Laerm;62979;55.720;37.606;2023-03-01T00:51:21;53.09;39.15;78.49;;
74496;Laerm;62979;55.720;37.606;2023-03-01T00:53:51;48.50;40.65;70.17;;
74496;Laerm;62979;55.720;37.606;2023-03-01T00:56:20;46.52;39.96;58.78;;
74496;Laerm;62979;55.720;37.606;2023-03-01T00:58:47;47.81;40.80;67.93;;
74496;Laerm;62979;55.720;37.606;2023-03-01T01:01:17;46.86;41.10;61.87;;
74496;Laerm;62979;55.720;37.606;2023-03-01T01:03:47;51.53;41.12;74.09;;
74496;Laerm;62979;55.720;37.606;2023-03-01T01:06:20;55.21;40.97;77.62;;
74496;Laerm;62979;55.720;37.606;2023-03-01T01:08:48;49.44;40.13;72.90;;
74496;Laerm;62979;55.720;37.606;2023-03-01T01:11:16;49.51;39.71;73.78;;
74496;Laerm;62979;55.720;37.606;2023-03-01T01:13:46;51.52;39.76;73.14;;
74496;Laerm;62979;55.720;37.606;2023-03-01T01:16:15;46.43;39.19;66.22;;
74496;Laerm;62979;55.720;37.606;2023-03-01T01:18:42;45.29;40.45;59.10;;
74496;Laerm;62979;55.720;37.606;2023-03-01T01:21:12;52.70;40.89;73.82;;
74496;Laerm;62979;55.720;37.606;2023-03-01T01:23:41;49.38;39.71;72.00;;
74496;Laerm;62979;55.720;37.606;2023-03-01T01:26:11;55.58;39.10;81.42;;
74496;Laerm;62979;55.720;37.606;2023-03-01T01:28:39;50.21;41.28;72.10;;
74496;Laerm;62979;55.720;37.606;2023-03-01T01:31:07;48.06;38.17;70.66;;
74496;Laerm;62979;55.720;37.606;2023-03-01T01:33:35;46.46;40.08;68.93;;
74496;Laerm;62979;55.720;37.606;2023-03-01T01:36:04;53.31;41.36;78.44;;
74496;Laerm;62979;55.720;37.606;2023-03-01T01:38:31;55.84;39.82;82.09;;
74496;Laerm;62979;55.720;37.606;2023-03-01T01:40:59;51.34;41.51;71.79;;
74496;Laerm;62979;55.720;37.606;2023-03-01T01:43:29;50.88;40.84;71.83;;
74496;Laerm;62979;55.720;37.606;2023-03-01T01:45:59;52.41;39.93;78.51;;
74496;Laerm;62979;55.720;37.606;2023-03-01T01:48:38;51.06;39.89;72.10;;
74496;Laerm;62979;55.720;37.606;2023-03-01T01:51:15;46.10;38.97;64.69;;
74496;Laerm;62979;55.720;37.606;2023-03-01T01:53:47;45.49;40.14;64.92;;
74496;Laerm;62979;55.720;37.606;2023-03-01T01:56:19;46.17;41.17;57.85;;
74496;Laerm;62979;55.720;37.606;2023-03-01T01:58:48;45.88;39.43;70.14;;
74496;Laerm;62979;55.720;37.606;2023-03-01T02:01:16;46.60;39.73;65.83;;
74496;Laerm;62979;55.720;37.606;2023-03-01T02:03:46;43.98;39.21;61.07;;
74496;Laerm;62979;55.720;37.606;2023-03-01T02:06:21;47.34;39.03;73.18;;
74496;Laerm;62979;55.720;37.606;2023-03-01T02:08:52;46.71;39.62;63.24;;
74496;Laerm;62979;55.720;37.606;2023-03-01T02:11:20;45.11;39.73;54.97;;
74496;Laerm;62979;55.720;37.606;2023-03-01T02:13:48;47.25;39.59;68.10;;
74496;Laerm;62979;55.720;37.606;2023-03-01T02:16:17;46.98;39.66;64.50;;
74496;Laerm;62979;55.720;37.606;2023-03-01T02:18:46;49.64;38.13;63.71;;
74496;Laerm;62979;55.720;37.606;2023-03-01T02:21:30;44.93;39.16;53.24;;
74496;Laerm;62979;55.720;37.606;2023-03-01T02:24:03;44.68;40.12;51.12;;
74496;Laerm;62979;55.720;37.606;2023-03-01T02:26:40;48.72;39.93;61.95;;
74496;Laerm;62979;55.720;37.606;2023-03-01T02:29:10;45.60;39.98;64.70;;
74496;Laerm;62979;55.720;37.606;2023-03-01T02:31:37;46.59;40.22;59.79;;
74496;Laerm;62979;55.720;37.606;2023-03-01T02:34:14;45.54;39.70;61.56;;
74496;Laerm;62979;55.720;37.606;2023-03-01T02:36:46;46.67;39.91;54.29;;
74496;Laerm;62979;55.720;37.606;2023-03-01T02:39:17;49.03;39.33;62.51;;
74496;Laerm;62979;55.720;37.606;2023-03-01T02:41:49;48.99;40.72;69.41;;
74496;Laerm;62979;55.720;37.606;2023-03-01T02:44:18;47.83;40.78;69.83;;
74496;Laerm;62979;55.720;37.606;2023-03-01T02:46:48;46.23;40.78;52.83;;
74496;Laerm;62979;55.720;37.606;2023-03-01T02:49:24;51.68;40.46;68.27;;
74496;Laerm;62979;55.720;37.606;2023-03-01T02:52:27;48.31;40.73;64.67;;
74496;Laerm;62979;55.720;37.606;2023-03-01T02:55:01;46.47;40.80;55.53;;
74496;Laerm;62979;55.720;37.606;2023-03-01T02:57:33;53.18;40.71;73.50;;
74496;Laerm;62979;55.720;37.606;2023-03-01T03:00:07;48.13;41.77;63.78;;
74496;Laerm;62979;55.720;37.606;2023-03-01T03:02:36;49.33;41.16;64.31;;
74496;Laerm;62979;55.720;37.606;2023-03-01T03:05:09;52.08;43.10;63.80;;
74496;Laerm;62979;55.720;37.606;2023-03-01T03:07:39;52.54;41.37;69.71;;
74496;Laerm;62979;55.720;37.606;2023-03-01T03:10:11;53.27;42.16;66.17;;
74496;Laerm;62979;55.720;37.606;2023-03-01T03:12:38;50.87;41.97;66.27;;
74496;Laerm;62979;55.720;37.606;2023-03-01T03:15:10;51.95;42.54;61.57;;
74496;Laerm;62979;55.720;37.606;2023-03-01T03:17:40;49.11;41.55;67.40;;
74496;Laerm;62979;55.720;37.606;2023-03-01T03:20:12;53.69;44.11;75.24;;
74496;Laerm;62979;55.720;37.606;2023-03-01T03:22:44;61.93;46.11;79.39;;
74496;Laerm;62979;55.720;37.606;2023-03-01T03:25:12;55.24;44.67;66.80;;
74496;Laerm;62979;55.720;37.606;2023-03-01T03:27:41;54.13;45.46;64.75;;
74496;Laerm;62979;55.720;37.606;2023-03-01T03:30:16;54.18;44.56;66.28;;
74496;Laerm;62979;55.720;37.606;2023-03-01T03:32:46;57.57;48.46;68.10;;
74496;Laerm;62979;55.720;37.606;2023-03-01T03:35:19;54.84;50.84;60.90;;
74496;Laerm;62979;55.720;37.606;2023-03-01T03:37:46;56.26;51.70;65.83;;
74496;Laerm;62979;55.720;37.606;2023-03-01T03:40:31;55.67;49.58;67.73;;
74496;Laerm;62979;55.720;37.606;2023-03-01T03:42:58;64.49;51.48;83.73;;
74496;Laerm;62979;55.720;37.606;2023-03-01T03:45:26;56.47;51.41;72.75;;
74496;Laerm;62979;55.720;37.606;2023-03-01T03:47:53;60.57;51.63;76.28;;
74496;Laerm;62979;55.720;37.606;2023-03-01T03:50:20;60.26;49.95;74.46;;
74496;Laerm;62979;55.720;37.606;2023-03-01T03:52:47;58.72;51.22;69.81;;
74496;Laerm;62979;55.720;37.606;2023-03-01T03:55:14;57.82;51.70;68.57;;
74496;Laerm;62979;55.720;37.606;2023-03-01T03:57:46;58.65;52.19;66.26;;
74496;Laerm;62979;55.720;37.606;2023-03-01T04:00:18;57.20;52.12;68.32;;
74496;Laerm;62979;55.720;37.606;2023-03-01T04:02:48;56.32;52.01;71.21;;
74496;Laerm;62979;55.720;37.606;2023-03-01T04:05:18;66.76;52.59;81.78;;
74496;Laerm;62979;55.720;37.606;2023-03-01T04:07:45;60.05;51.96;72.03;;
74496;Laerm;62979;55.720;37.606;2023-03-01T04:10:15;56.45;52.70;64.62;;
74496;Laerm;62979;55.720;37.606;2023-03-01T04:12:43;56.81;52.54;69.02;;
74496;Laerm;62979;55.720;37.606;2023-03-01T04:15:11;57.61;53.42;66.11;;
74496;Laerm;62979;55.720;37.606;2023-03-01T04:17:43;57.53;52.94;74.79;;
74496;Laerm;62979;55.720;37.606;2023-03-01T04:20:15;57.92;54.30;68.93;;
74496;Laerm;62979;55.720;37.606;2023-03-01T04:22:44;60.12;52.74;71.16;;
74496;Laerm;62979;55.720;37.606;2023-03-01T04:25:12;55.99;50.62;63.25;;
74496;Laerm;62979;55.720;37.606;2023-03-01T04:27:40;60.44;51.35;70.17;;
74496;Laerm;62979;55.720;37.606;2023-03-01T04:30:09;57.44;50.57;69.18;;
74496;Laerm;62979;55.720;37.606;2023-03-01T04:32:36;64.09;54.19;75.71;;
74496;Laerm;62979;55.720;37.606;2023-03-01T04:35:06;63.46;48.96;76.57;;
74496;Laerm;62979;55.720;37.606;2023-03-01T04:37:35;56.10;46.80;64.72;;
74496;Laerm;62979;55.720;37.606;2023-03-01T04:40:04;56.87;49.04;65.47;;
74496;Laerm;62979;55.720;37.606;2023-03-01T04:42:38;54.36;47.55;61.74;;
74496;Laerm;62979;55.720;37.606;2023-03-01T04:45:07;55.38;47.43;63.08;;
74496;Laerm;62979;55.720;37.606;2023-03-01T04:47:39;54.41;47.99;61.47;;
74496;Laerm;62979;55.720;37.606;2023-03-01T04:50:08;55.32;48.76;61.93;;
74496;Laerm;62979;55.720;37.606;2023-03-01T04:52:37;55.68;48.68;68.77;;
74496;Laerm;62979;55.720;37.606;2023-03-01T04:55:05;56.43;49.36;68.89;;
74496;Laerm;62979;55.720;37.606;2023-03-01T04:57:34;57.62;51.30;66.31;;
74496;Laerm;62979;55.720;37.606;2023-03-01T05:00:01;57.33;51.99;71.96;;
74496;Laerm;62979;55.720;37.606;2023-03-01T05:02:49;57.52;51.24;64.68;;
74496;Laerm;62979;55.720;37.606;2023-03-01T05:05:25;60.47;54.32;66.24;;
74496;Laerm;62979;55.720;37.606;2023-03-01T05:07:56;58.74;50.10;66.78;;
74496;Laerm;62979;55.720;37.606;2023-03-01T05:10:25;58.48;51.93;69.42;;
74496;Laerm;62979;55.720;37.606;2023-03-01T05:12:54;60.03;55.08;68.11;;
74496;Laerm;62979;55.720;37.606;2023-03-01T05:15:23;60.56;55.12;74.43;;
74496;Laerm;62979;55.720;37.606;2023-03-01T05:17:51;58.19;51.04;65.13;;
74496;Laerm;62979;55.720;37.606;2023-03-01T05:20:20;60.64;55.17;69.59;;
74496;Laerm;62979;55.720;37.606;2023-03-01T05:22:49;60.84;53.59;68.32;;
74496;Laerm;62979;55.720;37.606;2023-03-01T05:25:18;60.58;50.96;70.37;;
74496;Laerm;62979;55.720;37.606;2023-03-01T05:27:47;59.39;50.20;67.58;;
74496;Laerm;62979;55.720;37.606;2023-03-01T05:30:15;58.81;51.30;69.45;;
74496;Laerm;62979;55.720;37.606;2023-03-01T05:32:46;58.81;51.11;67.98;;
74496;Laerm;62979;55.720;37.606;2023-03-01T05:35:16;58.29;50.00;64.74;;
74496;Laerm;62979;55.720;37.606;2023-03-01T05:37:45;58.19;52.03;66.79;;
74496;Laerm;62979;55.720;37.606;2023-03-01T05:40:18;58.90;49.29;69.64;;
74496;Laerm;62979;55.720;37.606;2023-03-01T05:42:47;58.91;51.74;66.22;;
74496;Laerm;62979;55.720;37.606;2023-03-01T05:45:16;59.07;52.45;67.22;;
74496;Laerm;62979;55.720;37.606;2023-03-01T05:47:46;61.70;52.85;74.75;;
74496;Laerm;62979;55.720;37.606;2023-03-01T05:50:17;59.51;52.88;68.15;;
74496;Laerm;62979;55.720;37.606;2023-03-01T05:52:46;57.64;51.92;63.76;;
74496;Laerm;62979;55.720;37.606;2023-03-01T05:55:17;57.68;50.27;64.14;;
74496;Laerm;62979;55.720;37.606;2023-03-01T05:57:44;58.15;51.56;68.55;;
74496;Laerm;62979;55.720;37.606;2023-03-01T06:00:14;59.78;53.57;66.97;;
74496;Laerm;62979;55.720;37.606;2023-03-01T06:02:41;57.95;50.44;69.76;;
74496;Laerm;62979;55.720;37.606;2023-03-01T06:05:11;58.05;48.70;66.60;;
74496;Laerm;62979;55.720;37.606;2023-03-01T06:07:39;56.85;50.08;65.92;;
74496;Laerm;62979;55.720;37.606;2023-03-01T06:10:08;58.58;53.16;67.84;;
74496;Laerm;62979;55.720;37.606;2023-03-01T06:12:39;58.06;51.23;67.54;;
74496;Laerm;62979;55.720;37.606;2023-03-01T06:15:08;60.12;52.77;71.46;;
74496;Laerm;62979;55.720;37.606;2023-03-01T06:17:37;57.80;52.36;67.87;;
74496;Laerm;62979;55.720;37.606;2023-03-01T06:20:09;57.49;51.20;65.79;;
74496;Laerm;62979;55.720;37.606;2023-03-01T06:22:36;59.01;52.47;74.46;;
74496;Laerm;62979;55.720;37.606;2023-03-01T06:25:05;59.44;52.69;68.88;;
74496;Laerm;62979;55.720;37.606;2023-03-01T06:27:32;58.36;51.89;70.21;;
74496;Laerm;62979;55.720;37.606;2023-03-01T06:30:01;57.56;52.73;64.80;;
74496;Laerm;62979;55.720;37.606;2023-03-01T06:32:28;57.27;50.84;71.04;;
74496;Laerm;62979;55.720;37.606;2023-03-01T06:34:55;58.77;51.54;72.14;;
74496;Laerm;62979;55.720;37.606;2023-03-01T06:37:24;62.65;52.94;75.79;;
74496;Laerm;62979;55.720;37.606;2023-03-01T06:39:51;58.65;53.36;73.71;;
74496;Laerm;62979;55.720;37.606;2023-03-01T06:42:18;57.96;51.14;66.22;;
74496;Laerm;62979;55.720;37.606;2023-03-01T06:44:45;57.28;52.62;72.55;;
74496;Laerm;62979;55.720;37.606;2023-03-01T06:47:14;58.09;53.02;66.94;;
74496;Laerm;62979;55.720;37.606;2023-03-01T06:49:41;62.61;52.89;74.11;;
74496;Laerm;62979;55.720;37.606;2023-03-01T06:52:08;59.03;52.24;71.17;;
74496;Laerm;62979;55.720;37.606;2023-03-01T06:54:34;63.71;52.96;72.79;;
74496;Laerm;62979;55.720;37.606;2023-03-01T06:57:01;58.32;53.04;71.77;;
74496;Laerm;62979;55.720;37.606;2023-03-01T06:59:28;58.46;52.80;67.23;;
74496;Laerm;62979;55.720;37.606;2023-03-01T07:01:55;62.27;52.97;73.97;;
74496;Laerm;62979;55.720;37.606;2023-03-01T07:04:24;64.71;60.01;75.15;;
74496;Laerm;62979;55.720;37.606;2023-03-01T07:06:50;64.94;60.20;72.79;;
74496;Laerm;62979;55.720;37.606;2023-03-01T07:09:21;63.01;54.72;77.93;;
74496;Laerm;62979;55.720;37.606;2023-03-01T07:11:48;58.68;50.76;70.90;;
74496;Laerm;62979;55.720;37.606;2023-03-01T07:14:15;58.13;50.12;64.81;;
74496;Laerm;62979;55.720;37.606;2023-03-01T07:16:42;56.07;50.23;65.55;;
74496;Laerm;62979;55.720;37.606;2023-03-01T07:19:09;58.76;51.82;82.73;;
74496;Laerm;62979;55.720;37.606;2023-03-01T07:21:37;57.39;50.94;70.29;;
74496;Laerm;62979;55.720;37.606;2023-03-01T07:24:06;56.23;51.05;72.44;;
74496;Laerm;62979;55.720;37.606;2023-03-01T07:26:33;56.74;49.43;67.87;;
74496;Laerm;62979;55.720;37.606;2023-03-01T07:29:02;57.20;48.61;66.99;;
74496;Laerm;62979;55.720;37.606;2023-03-01T07:31:29;57.51;50.75;66.20;;
74496;Laerm;62979;55.720;37.606;2023-03-01T07:33:56;58.35;51.65;80.06;;
74496;Laerm;62979;55.720;37.606;2023-03-01T07:36:24;58.22;50.20;70.01;;
74496;Laerm;62979;55.720;37.606;2023-03-01T07:38:52;58.09;51.35;65.68;;
74496;Laerm;62979;55.720;37.606;2023-03-01T07:41:21;58.39;52.80;67.56;;
74496;Laerm;62979;55.720;37.606;2023-03-01T07:43:48;57.60;51.08;66.39;;
74496;Laerm;62979;55.720;37.606;2023-03-01T07:46:15;58.30;51.64;63.50;;
74496;Laerm;62979;55.720;37.606;2023-03-01T07:48:43;57.56;51.41;74.69;;
74496;Laerm;62979;55.720;37.606;2023-03-01T07:51:10;58.42;50.96;79.74;;
74496;Laerm;62979;55.720;37.606;2023-03-01T07:53:37;58.26;52.36;70.54;;
74496;Laerm;62979;55.720;37.606;2023-03-01T07:56:09;58.50;51.62;76.79;;
74496;Laerm;62979;55.720;37.606;2023-03-01T07:58:37;57.76;52.42;66.84;;
74496;Laerm;62979;55.720;37.606;2023-03-01T08:01:08;57.87;52.19;64.99;;
74496;Laerm;62979;55.720;37.606;2023-03-01T08:03:36;58.45;51.57;67.14;;
74496;Laerm;62979;55.720;37.606;2023-03-01T08:06:07;58.01;52.24;64.16;;
74496;Laerm;62979;55.720;37.606;2023-03-01T08:08:35;58.16;50.72;68.28;;
74496;Laerm;62979;55.720;37.606;2023-03-01T08:11:06;59.80;53.72;78.06;;
74496;Laerm;62979;55.720;37.606;2023-03-01T08:13:34;57.13;50.92;70.60;;
74496;Laerm;62979;55.720;37.606;2023-03-01T08:16:02;57.47;51.59;67.31;;
74496;Laerm;62979;55.720;37.606;2023-03-01T08:18:29;58.02;50.39;72.22;;
74496;Laerm;62979;55.720;37.606;2023-03-01T08:21:01;60.87;52.66;83.32;;
74496;Laerm;62979;55.720;37.606;2023-03-01T08:23:28;57.38;51.44;71.98;;
74496;Laerm;62979;55.720;37.606;2023-03-01T08:26:03;58.09;50.73;65.38;;
74496;Laerm;62979;55.720;37.606;2023-03-01T08:28:31;57.24;50.33;65.55;;
74496;Laerm;62979;55.720;37.606;2023-03-01T08:30:58;58.09;49.88;78.57;;
74496;Laerm;62979;55.720;37.606;2023-03-01T08:33:25;55.95;48.82;64.97;;
74496;Laerm;62979;55.720;37.606;2023-03-01T08:35:52;57.88;50.49;75.56;;
74496;Laerm;62979;55.720;37.606;2023-03-01T08:38:19;57.41;50.45;78.45;;
74496;Laerm;62979;55.720;37.606;2023-03-01T08:40:46;58.72;51.33;73.90;;
74496;Laerm;62979;55.720;37.606;2023-03-01T08:43:12;57.45;50.46;72.27;;
74496;Laerm;62979;55.720;37.606;2023-03-01T08:45:41;59.15;48.05;75.03;;
74496;Laerm;62979;55.720;37.606;2023-03-01T08:48:08;58.57;51.96;68.17;;
74496;Laerm;62979;55.720;37.606;2023-03-01T08:50:34;58.36;51.54;74.49;;
74496;Laerm;62979;55.720;37.606;2023-03-01T08:53:01;59.51;51.21;82.77;;
74496;Laerm;62979;55.720;37.606;2023-03-01T08:55:28;56.70;49.49;65.68;;
74496;Laerm;62979;55.720;37.606;2023-03-01T08:57:55;57.08;50.78;63.73;;
74496;Laerm;62979;55.720;37.606;2023-03-01T09:00:24;56.46;49.44;66.84;;
74496;Laerm;62979;55.720;37.606;2023-03-01T09:02:53;58.77;50.12;71.87;;
74496;Laerm;62979;55.720;37.606;2023-03-01T09:05:20;56.55;48.78;63.47;;
74496;Laerm;62979;55.720;37.606;2023-03-01T09:07:47;57.83;49.76;65.83;;
74496;Laerm;62979;55.720;37.606;2023-03-01T09:10:13;57.24;49.87;70.05;;
74496;Laerm;62979;55.720;37.606;2023-03-01T09:12:40;57.08;48.11;66.23;;
74496;Laerm;62979;55.720;37.606;2023-03-01T09:15:09;57.49;48.74;64.48;;
74496;Laerm;62979;55.720;37.606;2023-03-01T09:17:36;57.18;49.49;65.87;;
74496;Laerm;62979;55.720;37.606;2023-03-01T09:20:06;57.60;51.52;68.61;;
74496;Laerm;62979;55.720;37.606;2023-03-01T09:22:33;57.91;52.05;76.15;;
74496;Laerm;62979;55.720;37.606;2023-03-01T09:25:00;58.47;51.14;68.71;;
74496;Laerm;62979;55.720;37.606;2023-03-01T09:27:27;58.17;51.69;81.36;;
74496;Laerm;62979;55.720;37.606;2023-03-01T09:29:54;58.81;50.89;78.12;;
74496;Laerm;62979;55.720;37.606;2023-03-01T09:32:21;58.90;50.78;75.46;;
74496;Laerm;62979;55.720;37.606;2023-03-01T09:34:48;57.17;49.42;65.33;;
74496;Laerm;62979;55.720;37.606;2023-03-01T09:37:33;59.25;51.14;73.99;;
74496;Laerm;62979;55.720;37.606;2023-03-01T09:40:00;60.46;52.72;78.34;;
74496;Laerm;62979;55.720;37.606;2023-03-01T09:42:29;61.39;51.78;80.15;;
74496;Laerm;62979;55.720;37.606;2023-03-01T09:45:02;61.23;50.07;89.20;;
74496;Laerm;62979;55.720;37.606;2023-03-01T09:47:33;57.82;50.77;65.08;;
74496;Laerm;62979;55.720;37.606;2023-03-01T09:50:08;58.47;52.14;70.07;;
74496;Laerm;62979;55.720;37.606;2023-03-01T09:52:42;62.52;52.97;90.60;;
74496;Laerm;62979;55.720;37.606;2023-03-01T09:55:14;58.54;52.65;71.74;;
74496;Laerm;62979;55.720;37.606;2023-03-01T09:57:50;60.25;50.37;78.03;;
74496;Laerm;62979;55.720;37.606;2023-03-01T10:00:35;61.45;51.46;85.73;;
74496;Laerm;62979;55.720;37.606;2023-03-01T10:03:16;58.70;51.58;76.30;;
74496;Laerm;62979;55.720;37.606;2023-03-01T10:05:56;61.39;51.60;83.74;;
74496;Laerm;62979;55.720;37.606;2023-03-01T10:08:39;58.19;51.30;74.23;;
74496;Laerm;62979;55.720;37.606;2023-03-01T10:11:20;57.34;49.22;64.19;;
74496;Laerm;62979;55.720;37.606;2023-03-01T10:13:56;60.53;52.05;85.88;;
74496;Laerm;62979;55.720;37.606;2023-03-01T10:16:37;57.30;50.71;69.50;;
74496;Laerm;62979;55.720;37.606;2023-03-01T10:19:15;58.06;50.09;65.24;;
74496;Laerm;62979;55.720;37.606;2023-03-01T10:21:46;58.45;50.23;72.32;;
74496;Laerm;62979;55.720;37.606;2023-03-01T10:24:18;58.68;49.01;67.83;;
74496;Laerm;62979;55.720;37.606;2023-03-01T10:26:55;61.55;53.96;71.83;;
74496;Laerm;62979;55.720;37.606;2023-03-01T10:29:28;61.50;53.59;69.53;;
74496;Laerm;62979;55.720;37.606;2023-03-01T10:31:57;65.66;55.13;90.94;;
74496;Laerm;62979;55.720;37.606;2023-03-01T10:34:30;60.95;52.74;75.20;;
74496;Laerm;62979;55.720;37.606;2023-03-01T10:37:01;59.13;51.56;70.28;;
74496;Laerm;62979;55.720;37.606;2023-03-01T10:39:36;61.50;53.02;79.45;;
74496;Laerm;62979;55.720;37.606;2023-03-01T10:42:09;62.18;52.54;84.90;;
74496;Laerm;62979;55.720;37.606;2023-03-01T10:44:47;59.28;51.08;76.63;;
74496;Laerm;62979;55.720;37.606;2023-03-01T10:47:20;57.58;49.76;72.65;;
74496;Laerm;62979;55.720;37.606;2023-03-01T10:49:58;62.02;50.02;83.29;;
74496;Laerm;62979;55.720;37.606;2023-03-01T10:52:31;59.24;53.21;72.62;;
74496;Laerm;62979;55.720;37.606;2023-03-01T10:55:04;56.36;48.35;67.72;;
74496;Laerm;62979;55.720;37.606;2023-03-01T10:57:46;58.86;51.03;77.23;;
74496;Laerm;62979;55.720;37.606;2023-03-01T11:00:25;59.70;53.35;70.72;;
74496;Laerm;62979;55.720;37.606;2023-03-01T11:03:12;58.59;51.83;67.85;;
74496;Laerm;62979;55.720;37.606;2023-03-01T11:05:58;58.48;51.24;72.52;;
74496;Laerm;62979;55.720;37.606;2023-03-01T11:08:42;71.27;51.00;85.38;;
74496;Laerm;62979;55.720;37.606;2023-03-01T11:11:23;69.42;53.44;84.75;;
74496;Laerm;62979;55.720;37.606;2023-03-01T11:13:55;59.29;50.20;78.43;;
74496;Laerm;62979;55.720;37.606;2023-03-01T11:16:31;61.23;50.87;82.33;;
74496;Laerm;62979;55.720;37.606;2023-03-01T11:19:18;58.91;50.62;79.31;;
74496;Laerm;62979;55.720;37.606;2023-03-01T11:22:02;60.62;50.86;85.12;;
74496;Laerm;62979;55.720;37.606;2023-03-01T11:24:38;57.95;53.18;65.16;;
74496;Laerm;62979;55.720;37.606;2023-03-01T11:27:17;58.61;50.70;72.66;;
74496;Laerm;62979;55.720;37.606;2023-03-01T11:29:50;59.60;51.54;77.93;;
74496;Laerm;62979;55.720;37.606;2023-03-01T11:32:25;57.31;50.79;74.37;;
74496;Laerm;62979;55.720;37.606;2023-03-01T11:34:56;58.29;51.99;65.21;;
74496;Laerm;62979;55.720;37.606;2023-03-01T11:37:38;57.42;51.14;69.29;;
74496;Laerm;62979;55.720;37.606;2023-03-01T11:40:17;57.26;49.12;65.57;;
74496;Laerm;62979;55.720;37.606;2023-03-01T11:43:05;57.93;51.46;73.32;;
74496;Laerm;62979;55.720;37.606;2023-03-01T11:48:44;59.79;52.10;78.77;;
74496;Laerm;62979;55.720;37.606;2023-03-01T11:51:24;59.33;50.71;82.97;;
74496;Laerm;62979;55.720;37.606;2023-03-01T11:54:17;59.71;52.05;75.61;;
74496;Laerm;62979;55.720;37.606;2023-03-01T11:56:52;58.65;50.49;79.78;;
74496;Laerm;62979;55.720;37.606;2023-03-01T11:59:57;58.84;51.19;84.57;;
74496;Laerm;62979;55.720;37.606;2023-03-01T12:08:38;58.41;52.04;68.00;;
74496;Laerm;62979;55.720;37.606;2023-03-01T12:11:23;59.10;51.46;75.18;;
74496;Laerm;62979;55.720;37.606;2023-03-01T12:14:30;57.45;49.30;64.83;;
74496;Laerm;62979;55.720;37.606;2023-03-01T12:17:54;57.39;50.26;67.60;;
74496;Laerm;62979;55.720;37.606;2023-03-01T12:20:32;59.23;50.82;72.76;;
74496;Laerm;62979;55.720;37.606;2023-03-01T12:23:43;58.17;49.68;76.70;;
74496;Laerm;62979;55.720;37.606;2023-03-01T12:26:23;60.47;53.78;78.43;;
74496;Laerm;62979;55.720;37.606;2023-03-01T12:29:05;58.71;52.38;70.26;;
74496;Laerm;62979;55.720;37.606;2023-03-01T12:32:19;62.06;52.49;82.50;;
74496;Laerm;62979;55.720;37.606;2023-03-01T12:35:12;61.20;53.90;82.32;;
74496;Laerm;62979;55.720;37.606;2023-03-01T12:37:54;59.65;51.60;76.44;;
74496;Laerm;62979;55.720;37.606;2023-03-01T12:44:02;59.10;51.34;73.38;;
74496;Laerm;62979;55.720;37.606;2023-03-01T12:46:52;61.31;53.22;80.96;;
74496;Laerm;62979;55.720;37.606;2023-03-01T12:49:26;60.32;51.08;79.54;;
74496;Laerm;62979;55.720;37.606;2023-03-01T12:52:00;59.84;52.54;82.35;;
74496;Laerm;62979;55.720;37.606;2023-03-01T12:54:31;60.19;53.25;78.81;;
74496;Laerm;62979;55.720;37.606;2023-03-01T12:57:08;59.63;52.55;81.57;;
74496;Laerm;62979;55.720;37.606;2023-03-01T12:59:48;59.17;51.85;76.91;;
74496;Laerm;62979;55.720;37.606;2023-03-01T13:02:29;56.82;51.92;72.74;;
74496;Laerm;62979;55.720;37.606;2023-03-01T13:05:22;58.12;52.98;67.46;;
74496;Laerm;62979;55.720;37.606;2023-03-01T13:08:02;63.44;53.88;83.29;;
74496;Laerm;62979;55.720;37.606;2023-03-01T13:10:40;64.52;53.37;87.58;;
74496;Laerm;62979;55.720;37.606;2023-03-01T13:13:18;56.87;51.25;71.56;;
74496;Laerm;62979;55.720;37.606;2023-03-01T13:15:46;58.77;52.16;78.18;;
74496;Laerm;62979;55.720;37.606;2023-03-01T13:18:34;59.46;53.31;77.29;;
74496;Laerm;62979;55.720;37.606;2023-03-01T13:21:05;58.37;50.48;68.72;;
74496;Laerm;62979;55.720;37.606;2023-03-01T13:23:36;59.98;50.95;79.36;;
74496;Laerm;62979;55.720;37.606;2023-03-01T13:26:16;60.13;52.31;78.19;;
74496;Laerm;62979;55.720;37.606;2023-03-01T13:28:49;58.35;52.34;74.27;;
74496;Laerm;62979;55.720;37.606;2023-03-01T13:31:59;64.17;53.02;85.69;;
74496;Laerm;62979;55.720;37.606;2023-03-01T13:34:55;59.83;53.47;82.09;;
74496;Laerm;62979;55.720;37.606;2023-03-01T13:37:32;63.82;53.22;88.65;;
74496;Laerm;62979;55.720;37.606;2023-03-01T13:40:07;59.32;53.93;79.94;;
74496;Laerm;62979;55.720;37.606;2023-03-01T13:42:54;61.26;52.54;84.51;;
74496;Laerm;62979;55.720;37.606;2023-03-01T13:45:34;63.82;52.81;89.14;;
74496;Laerm;62979;55.720;37.606;2023-03-01T13:48:09;58.84;51.78;77.00;;
74496;Laerm;62979;55.720;37.606;2023-03-01T13:50:46;69.19;53.09;91.40;;
74496;Laerm;62979;55.720;37.606;2023-03-01T13:53:18;62.90;52.22;83.63;;
74496;Laerm;62979;55.720;37.606;2023-03-01T13:55:49;58.32;50.39;74.24;;
74496;Laerm;62979;55.720;37.606;2023-03-01T13:58:25;60.35;52.04;81.22;;
74496;Laerm;62979;55.720;37.606;2023-03-01T14:00:58;59.64;53.03;73.62;;
74496;Laerm;62979;55.720;37.606;2023-03-01T14:03:26;58.53;52.32;74.55;;
74496;Laerm;62979;55.720;37.606;2023-03-01T14:06:05;58.41;51.81;65.85;;
74496;Laerm;62979;55.720;37.606;2023-03-01T14:08:35;58.10;50.04;72.71;;
74496;Laerm;62979;55.720;37.606;2023-03-01T14:14:43;59.00;50.79;70.21;;
74496;Laerm;62979;55.720;37.606;2023-03-01T14:17:49;59.64;53.29;76.57;;